CYVO

Val-D'or Airport

Val-D'or, , Canada
TAF AMD CYVO 181403Z 1814/1824 34010KT P6SM SCT004 TEMPO 1814/1816 3SM -DZ BR OVC004 FM181600 01006KT P6SM SCT012 BKN025 TEMPO 1816/1820 BKN012 OVC025 FM182000 35005KT P6SM SCT025 RMK NXT FCST BY 181800Z
Issued Valid From Valid To
Sep-18 @ 14:03 UTC
(4 hours ago)
Sep-18 @ 14:00 UTC
(4 hours ago)
Sep-19 @ 00:00 UTC
(in 6 hours)
Expired Click to View Sep-18 @ 14:00 to Sep-18 @ 16:00
TAF AMD CYVO 181403Z 1814/1824 34010KT P6SM SCT004
Wind Visibility Clouds
340° at 10 knots Greater than 6 miles
  • Scattered at 400' AGL
Expired Click to View Sep-18 @ 14:00 to Sep-18 @ 16:00
TEMPO 1814/1816 3SM -DZ BR OVC004
Visibility Clouds Conditions
3 miles
  • Overcast at 400' AGL
  • Light Drizzle
  • Mist
Temporary Sep-18 @ 16:00 to Sep-18 @ 20:00
TEMPO 1816/1820 BKN012 OVC025
Clouds
  • Broken at 1,200' AGL
  • Overcast at 2,500' AGL
From Sep-18 @ 16:00 to Sep-18 @ 20:00
FM181600 01006KT P6SM SCT012 BKN025
Wind Visibility Clouds
10° at 6 knots Greater than 6 miles
  • Scattered at 1,200' AGL
  • Broken at 2,500' AGL
From Sep-18 @ 20:00 to Sep-19 @ 00:00
FM182000 35005KT P6SM SCT025 RMK NXT FCST BY 181800Z
Wind Visibility Clouds
350° at 5 knots Greater than 6 miles
  • Scattered at 2,500' AGL
TAF AMD CYVO 181403Z 1814/1824 34010KT P6SM SCT004 TEMPO 1814/1816 3SM -DZ BR OVC004 FM181600 01006KT P6SM SCT012 BKN025 TEMPO 1816/1820 BKN012 OVC025 FM182000 35005KT P6SM SCT025 RMK NXT FCST BY 181800Z
Issued Sep-18 @ 14:03 UTC
(4 hours ago)
Valid From Sep-18 @ 14:00 UTC
(4 hours ago)
Valid To Sep-19 @ 00:00 UTC
(in 6 hours)
Sep-18 @ 14:00 - Sep-18 @ 16:00
Wind Visibility
340° at 10 knots Greater than 6 miles
Clouds
  • Scattered at 400' AGL
Sep-18 @ 14:00 - Sep-18 @ 16:00
Clouds
  • Overcast at 400' AGL
Conditions
  • Light Drizzle
  • Mist
Temporary Sep-18 @ 16:00 - Sep-18 @ 20:00
Clouds
  • Broken at 1,200' AGL
  • Overcast at 2,500' AGL
From Sep-18 @ 16:00 - Sep-18 @ 20:00
Wind Visibility
10° at 6 knots Greater than 6 miles
Clouds
  • Scattered at 1,200' AGL
  • Broken at 2,500' AGL
From Sep-18 @ 20:00 - Sep-19 @ 00:00
Wind Visibility
350° at 5 knots Greater than 6 miles
Clouds
  • Scattered at 2,500' AGL